Time;durP1;ratioP1;P1;durP2;ratioP2;P2;SDS_P1;SDS_P2;PMS_P1;PMS_P2;Temp;Humidity;BMP_temperature;BMP_pressure;BME280_temperature;BME280_humidity;BME280_pressure;Samples;Min_cycle;Max_cycle;Signal;HPM_P1;HPM_P2
2022/10/07 00:12:41;;;;;;;3.50;1.57;;;17.30;57.80;;;;;;4975330;28;20449;-74
2022/10/07 00:15:10;;;;;;;1.90;1.10;;;17.30;57.90;;;;;;4990742;23;20456;-69
2022/10/07 00:17:39;;;;;;;2.33;1.60;;;17.30;57.90;;;;;;4979827;28;20465;-68
2022/10/07 00:20:08;;;;;;;2.30;1.47;;;17.30;57.80;;;;;;4998013;28;20833;-69
2022/10/07 00:22:36;;;;;;;2.03;1.20;;;17.30;57.70;;;;;;4979340;28;20428;-69
2022/10/07 00:25:06;;;;;;;1.97;1.40;;;17.30;57.60;;;;;;4998958;28;20480;-69
2022/10/07 00:27:34;;;;;;;1.70;1.33;;;17.30;57.80;;;;;;4982463;28;20492;-69
2022/10/07 00:30:04;;;;;;;2.07;1.57;;;17.30;57.60;;;;;;4993643;28;20544;-69
2022/10/07 00:32:33;;;;;;;2.00;1.50;;;17.30;57.50;;;;;;4981941;28;20964;-69
2022/10/07 00:35:01;;;;;;;2.40;1.47;;;17.30;57.50;;;;;;4990450;28;20495;-67
2022/10/07 00:37:30;;;;;;;1.93;1.30;;;17.30;57.50;;;;;;5004043;28;20445;-69
2022/10/07 00:39:58;;;;;;;2.90;1.60;;;17.30;57.60;;;;;;5025184;23;20891;-51
2022/10/07 00:42:29;;;;;;;3.07;1.97;;;17.30;57.80;;;;;;5000812;28;20827;-51
2022/10/07 00:44:59;;;;;;;3.60;2.33;;;17.30;57.50;;;;;;4994959;28;21009;-50
2022/10/07 00:47:31;;;;;;;2.20;1.23;;;17.30;57.80;;;;;;4970547;28;20462;-51
2022/10/07 00:50:05;;;;;;;1.33;1.20;;;17.20;57.80;;;;;;4998392;28;20441;-51
2022/10/07 00:52:37;;;;;;;4.20;2.00;;;17.20;57.80;;;;;;4996504;23;20512;-48
2022/10/07 00:55:09;;;;;;;2.40;1.87;;;17.30;57.70;;;;;;4962096;28;20469;-49
2022/10/07 00:57:40;;;;;;;3.57;1.90;;;17.20;57.60;;;;;;4981233;28;20546;-49
2022/10/07 01:00:10;;;;;;;4.17;1.90;;;17.20;57.70;;;;;;4979425;28;21043;-49
2022/10/07 01:02:40;;;;;;;1.90;1.70;;;17.20;57.50;;;;;;4971888;28;20451;-49
2022/10/07 01:05:12;;;;;;;2.10;1.50;;;17.20;57.50;;;;;;4967037;28;20471;-49
2022/10/07 01:07:45;;;;;;;2.80;1.40;;;17.20;57.70;;;;;;4978109;28;20445;-49
2022/10/07 01:20:02;;;;;;;2.40;1.60;;;17.20;57.80;;;;;;4968383;28;20418;-51
2022/10/07 01:22:40;;;;;;;2.00;1.37;;;17.20;57.80;;;;;;4954124;28;20454;-51
2022/10/07 01:25:25;;;;;;;1.80;1.37;;;17.20;58.90;;;;;;4951958;28;20478;-49
2022/10/07 01:27:59;;;;;;;3.93;1.50;;;17.20;57.70;;;;;;4969858;28;20434;-51
2022/10/07 01:30:31;;;;;;;2.03;1.50;;;17.20;57.70;;;;;;5030303;23;20704;-69
2022/10/07 01:33:04;;;;;;;2.90;1.97;;;17.10;57.70;;;;;;4941962;28;20470;-69
2022/10/07 01:35:35;;;;;;;2.67;1.53;;;17.10;57.80;;;;;;4968017;28;20509;-69
2022/10/07 01:38:07;;;;;;;2.40;1.57;;;17.10;57.80;;;;;;4970142;28;21091;-69
2022/10/07 01:40:44;;;;;;;2.50;1.37;;;17.10;57.50;;;;;;4962634;28;20471;-69
2022/10/07 01:43:15;;;;;;;3.27;1.60;;;17.10;57.60;;;;;;4969682;28;20877;-69
2022/10/07 01:45:44;;;;;;;3.10;1.20;;;17.10;57.70;;;;;;4963821;28;21195;-68
2022/10/07 01:48:12;;;;;;;4.20;1.50;;;17.10;57.70;;;;;;4970995;28;20819;-69
2022/10/07 01:50:42;;;;;;;3.30;1.30;;;17.10;57.60;;;;;;4962424;28;20471;-69
2022/10/07 01:53:25;;;;;;;3.33;2.57;;;17.10;57.60;;;;;;4970419;28;20741;-69
2022/10/07 01:56:17;;;;;;;3.13;1.53;;;17.10;57.50;;;;;;4969530;28;20838;-69
2022/10/07 01:59:05;;;;;;;4.70;1.67;;;17.10;57.50;;;;;;4970502;28;20978;-69
2022/10/07 02:01:42;;;;;;;1.43;0.97;;;17.10;57.60;;;;;;4971552;28;20462;-69
2022/10/07 02:04:29;;;;;;;1.87;1.23;;;17.10;57.80;;;;;;4988454;28;20458;-68
2022/10/07 02:07:09;;;;;;;2.50;1.50;;;17.10;57.70;;;;;;4973280;28;20460;-69
2022/10/07 02:09:42;;;;;;;2.50;1.63;;;17.10;57.70;;;;;;4986080;28;20473;-69
2022/10/07 02:12:17;;;;;;;2.37;1.70;;;17.10;57.50;;;;;;4972981;28;20434;-69
2022/10/07 02:14:56;;;;;;;1.40;1.20;;;17.10;57.70;;;;;;4964710;28;20875;-68
2022/10/07 02:17:27;;;;;;;1.67;1.40;;;17.00;57.70;;;;;;4956665;28;20451;-69
2022/10/07 02:19:56;;;;;;;3.73;1.60;;;17.00;57.40;;;;;;4956100;28;20546;-69
2022/10/07 02:22:28;;;;;;;1.83;1.60;;;17.00;57.30;;;;;;4956073;28;20807;-69
2022/10/07 02:24:59;;;;;;;2.13;1.43;;;17.00;57.70;;;;;;4971208;28;20581;-69
2022/10/07 02:27:33;;;;;;;3.00;1.80;;;17.00;57.60;;;;;;4972761;28;20546;-67
2022/10/07 02:30:07;;;;;;;2.60;1.77;;;17.00;57.60;;;;;;4964742;28;20474;-69
2022/10/07 02:32:39;;;;;;;2.30;1.30;;;17.00;57.60;;;;;;4971478;28;20450;-69
2022/10/07 02:35:23;;;;;;;1.90;1.33;;;17.00;57.50;;;;;;4971819;28;20486;-69
2022/10/07 02:37:55;;;;;;;1.30;1.20;;;17.00;57.70;;;;;;4970790;28;20463;-69
2022/10/07 02:40:27;;;;;;;2.43;1.67;;;17.00;57.50;;;;;;4971480;28;20463;-69
2022/10/07 02:43:00;;;;;;;2.87;1.63;;;17.00;57.70;;;;;;4971417;28;20862;-69
2022/10/07 02:45:39;;;;;;;3.70;2.07;;;17.00;57.30;;;;;;4964283;28;20482;-69
2022/10/07 02:48:17;;;;;;;3.60;1.70;;;17.00;57.30;;;;;;4968654;28;20462;-69
2022/10/07 02:50:49;;;;;;;1.97;1.53;;;16.90;57.30;;;;;;4971415;28;20529;-69
2022/10/07 02:53:20;;;;;;;2.80;1.60;;;16.90;57.40;;;;;;4972090;28;20854;-69
2022/10/07 02:55:50;;;;;;;2.50;1.40;;;16.90;57.30;;;;;;4971312;28;20533;-69
2022/10/07 02:58:21;;;;;;;5.80;1.97;;;16.90;57.50;;;;;;4972509;28;20847;-69
2022/10/07 03:00:54;;;;;;;3.37;1.80;;;16.90;57.40;;;;;;4970831;28;20841;-69
2022/10/07 03:03:23;;;;;;;3.47;1.73;;;16.90;57.60;;;;;;4956098;28;20453;-69
2022/10/07 03:06:02;;;;;;;1.40;1.30;;;16.90;57.60;;;;;;4965958;28;20474;-69
2022/10/07 03:08:32;;;;;;;2.77;1.57;;;16.90;57.50;;;;;;4972138;28;20985;-69
2022/10/07 03:11:01;;;;;;;2.43;1.20;;;16.90;57.50;;;;;;4971104;28;21141;-69
2022/10/07 03:13:31;;;;;;;2.23;1.47;;;16.90;57.50;;;;;;4971688;28;20837;-69
2022/10/07 03:16:04;;;;;;;2.03;1.23;;;16.90;57.50;;;;;;4969614;28;20495;-69
2022/10/07 03:18:33;;;;;;;2.83;1.70;;;16.90;57.70;;;;;;4988230;28;20446;-69
2022/10/07 03:21:25;;;;;;;2.60;1.70;;;16.90;57.70;;;;;;4959376;28;20462;-69
2022/10/07 03:23:56;;;;;;;1.40;1.20;;;16.90;57.60;;;;;;4967811;28;20471;-69
2022/10/07 03:26:29;;;;;;;2.40;1.47;;;16.80;57.40;;;;;;4964410;28;20499;-69
2022/10/07 03:28:58;;;;;;;1.97;1.40;;;16.80;57.50;;;;;;4963604;28;20447;-70
2022/10/07 03:31:28;;;;;;;2.30;1.40;;;16.80;57.90;;;;;;4971373;28;20791;-69
2022/10/07 03:34:00;;;;;;;2.00;1.60;;;16.80;57.80;;;;;;4971375;28;20750;-69
2022/10/07 03:36:28;;;;;;;2.63;1.50;;;16.80;57.90;;;;;;4971506;28;21000;-69
2022/10/07 03:38:57;;;;;;;1.73;1.23;;;16.80;57.80;;;;;;4971309;28;20443;-69
2022/10/07 03:41:26;;;;;;;1.37;1.10;;;16.80;57.80;;;;;;4971084;28;20435;-69
2022/10/07 03:43:58;;;;;;;1.87;1.30;;;16.80;57.80;;;;;;4963931;28;20795;-69
2022/10/07 03:46:29;;;;;;;3.03;1.97;;;16.80;57.70;;;;;;4971077;28;20506;-69
2022/10/07 03:48:57;;;;;;;5.10;1.80;;;16.80;57.70;;;;;;4960117;28;20943;-69
2022/10/07 03:51:27;;;;;;;4.37;1.50;;;16.80;57.50;;;;;;4967101;28;20554;-69
2022/10/07 03:53:56;;;;;;;2.20;1.60;;;16.80;57.40;;;;;;4961677;28;20974;-69
2022/10/07 03:56:27;;;;;;;2.73;1.70;;;16.80;57.50;;;;;;4971135;28;20470;-69
2022/10/07 03:58:56;;;;;;;2.30;1.63;;;16.70;57.50;;;;;;4970845;28;20435;-69
2022/10/07 04:01:25;;;;;;;5.80;1.70;;;16.80;57.40;;;;;;4965427;28;20865;-69
2022/10/07 04:04:00;;;;;;;1.30;1.20;;;16.70;57.40;;;;;;4963215;28;20474;-69
2022/10/07 04:06:32;;;;;;;1.83;1.40;;;16.70;57.70;;;;;;4970958;28;20478;-69
2022/10/07 04:09:05;;;;;;;1.83;1.73;;;16.70;57.50;;;;;;4970704;28;20439;-69
2022/10/07 04:11:35;;;;;;;1.90;1.70;;;16.70;57.50;;;;;;4970141;28;20478;-69
2022/10/07 04:14:03;;;;;;;2.80;1.23;;;16.70;57.30;;;;;;4969435;28;20518;-69
2022/10/07 04:16:32;;;;;;;2.53;1.63;;;16.70;57.20;;;;;;4971288;28;20501;-69
2022/10/07 04:19:08;;;;;;;3.57;1.50;;;16.70;57.60;;;;;;4964015;28;20442;-69
2022/10/07 04:21:37;;;;;;;1.80;1.63;;;16.70;57.50;;;;;;4970187;28;20426;-68
2022/10/07 04:24:05;;;;;;;3.27;1.40;;;16.70;57.50;;;;;;4969589;28;20522;-69
2022/10/07 04:26:36;;;;;;;1.90;1.30;;;16.60;57.70;;;;;;4970249;28;20508;-69
2022/10/07 04:29:04;;;;;;;3.00;1.63;;;16.70;57.50;;;;;;4970266;28;20434;-69
2022/10/07 04:31:33;;;;;;;4.57;1.30;;;16.70;57.50;;;;;;4969850;28;20450;-69
2022/10/07 04:34:05;;;;;;;2.10;1.47;;;16.70;57.80;;;;;;4970122;28;20506;-69
2022/10/07 04:36:40;;;;;;;5.17;2.40;;;16.60;57.70;;;;;;4970253;28;20454;-69
2022/10/07 04:39:12;;;;;;;3.53;1.40;;;16.60;57.50;;;;;;4944745;28;20469;-69
2022/10/07 04:41:47;;;;;;;5.50;1.73;;;16.60;57.40;;;;;;4967634;28;20979;-69
2022/10/07 04:44:20;;;;;;;2.27;1.23;;;16.60;57.30;;;;;;4957388;28;20562;-68
2022/10/07 04:47:05;;;;;;;2.23;1.57;;;16.60;57.50;;;;;;4970081;28;20465;-69
2022/10/07 04:49:35;;;;;;;4.03;1.87;;;16.60;57.20;;;;;;4980243;28;20440;-69
2022/10/07 04:52:09;;;;;;;2.17;1.63;;;16.60;57.50;;;;;;4969800;28;20443;-69
2022/10/07 04:54:40;;;;;;;2.20;1.50;;;16.60;57.50;;;;;;4961731;28;20938;-69
2022/10/07 04:57:08;;;;;;;2.50;1.50;;;16.60;57.50;;;;;;4969995;28;20466;-69
2022/10/07 04:59:37;;;;;;;1.80;1.50;;;16.60;57.60;;;;;;4969117;28;20985;-69
2022/10/07 05:02:12;;;;;;;3.63;1.60;;;16.60;57.50;;;;;;4964650;28;20921;-69
2022/10/07 05:04:40;;;;;;;2.30;1.60;;;16.60;57.60;;;;;;4982052;28;20458;-69
2022/10/07 05:07:10;;;;;;;1.93;1.43;;;16.50;57.40;;;;;;4953694;28;20814;-69
2022/10/07 05:09:39;;;;;;;1.10;1.00;;;16.50;57.30;;;;;;4968929;28;20470;-69
2022/10/07 05:12:08;;;;;;;3.20;1.70;;;16.50;57.50;;;;;;4969772;28;20501;-68
2022/10/07 05:14:36;;;;;;;2.47;1.53;;;16.50;58.60;;;;;;4972059;28;20439;-69
2022/10/07 05:17:05;;;;;;;4.37;1.60;;;16.50;57.40;;;;;;4953968;28;20458;-69
2022/10/07 05:19:35;;;;;;;1.50;1.33;;;16.50;57.50;;;;;;4966828;28;20448;-69
2022/10/07 05:22:04;;;;;;;2.53;1.43;;;16.50;57.60;;;;;;4969577;28;20514;-69
2022/10/07 05:24:34;;;;;;;1.70;1.43;;;16.50;57.40;;;;;;4969090;28;20549;-69
2022/10/07 05:27:03;;;;;;;2.33;1.37;;;16.50;57.60;;;;;;4977106;28;20561;-69
2022/10/07 05:29:31;;;;;;;1.73;1.30;;;16.50;57.90;;;;;;4953251;28;20455;-69
2022/10/07 05:32:00;;;;;;;3.70;1.57;;;16.50;57.50;;;;;;4961803;28;20435;-69
2022/10/07 05:34:33;;;;;;;2.40;1.20;;;16.50;57.60;;;;;;4961684;28;20824;-68
2022/10/07 05:37:01;;;;;;;3.47;1.50;;;16.50;57.60;;;;;;4969762;28;20443;-69
2022/10/07 05:39:30;;;;;;;1.77;1.30;;;16.50;57.80;;;;;;4963361;28;20474;-69
2022/10/07 05:42:11;;;;;;;3.87;1.77;;;16.50;57.60;;;;;;4969500;28;20523;-68
2022/10/07 05:44:45;;;;;;;3.63;1.60;;;16.50;57.70;;;;;;4968618;28;20554;-69
2022/10/07 05:47:14;;;;;;;1.43;1.27;;;16.40;57.50;;;;;;4969517;28;20549;-69
2022/10/07 05:49:43;;;;;;;3.30;1.60;;;16.40;57.50;;;;;;4969375;28;20450;-69
2022/10/07 05:52:11;;;;;;;3.13;1.73;;;16.40;57.50;;;;;;4968932;28;20435;-69
2022/10/07 05:54:41;;;;;;;2.73;1.17;;;16.40;57.70;;;;;;4968546;28;21025;-69
2022/10/07 05:57:12;;;;;;;2.50;1.50;;;16.40;57.80;;;;;;4969626;28;20891;-69
2022/10/07 05:59:42;;;;;;;2.93;1.53;;;16.40;57.80;;;;;;4970690;28;20438;-69
2022/10/07 06:02:14;;;;;;;2.80;1.80;;;16.40;57.50;;;;;;4968697;28;20806;-69
2022/10/07 06:04:46;;;;;;;2.10;1.30;;;16.40;57.70;;;;;;4969104;28;20454;-69
2022/10/07 06:07:15;;;;;;;3.87;1.50;;;16.40;57.60;;;;;;4969524;28;20525;-69
2022/10/07 06:15:23;;;;;;;4.20;1.77;;;16.40;57.70;;;;;;4968176;28;20982;-69
2022/10/07 06:17:52;;;;;;;3.47;1.30;;;16.40;57.80;;;;;;4968416;28;20514;-69
2022/10/07 06:20:20;;;;;;;2.30;1.30;;;16.40;57.80;;;;;;4968535;28;20577;-69
2022/10/07 06:22:54;;;;;;;1.83;1.30;;;16.40;57.80;;;;;;4968389;28;20447;-69
2022/10/07 06:25:23;;;;;;;3.17;1.63;;;16.40;57.70;;;;;;4988391;28;21030;-69
2022/10/07 06:27:55;;;;;;;3.40;1.83;;;16.30;57.80;;;;;;4972688;28;20502;-69
2022/10/07 06:30:28;;;;;;;3.23;1.77;;;16.30;57.50;;;;;;4967769;28;20485;-69
2022/10/07 06:32:59;;;;;;;4.80;1.60;;;16.30;57.70;;;;;;4972673;28;20474;-69
2022/10/07 06:35:28;;;;;;;2.33;1.40;;;16.30;57.80;;;;;;4972138;28;20463;-69
2022/10/07 06:37:57;;;;;;;4.30;1.67;;;16.30;57.50;;;;;;4964557;28;20463;-69
2022/10/07 06:40:26;;;;;;;4.53;1.77;;;16.30;57.60;;;;;;4964832;28;20466;-69
2022/10/07 06:42:56;;;;;;;4.57;1.50;;;16.30;57.60;;;;;;4968974;28;20473;-69
2022/10/07 06:45:31;;;;;;;2.73;1.60;;;16.30;57.70;;;;;;4961883;28;20501;-69
2022/10/07 06:48:01;;;;;;;1.90;1.57;;;16.30;57.90;;;;;;4972162;28;20458;-69
2022/10/07 06:50:30;;;;;;;3.80;1.77;;;16.30;57.80;;;;;;4972137;28;20466;-68
2022/10/07 06:53:01;;;;;;;2.90;1.50;;;16.30;59.10;;;;;;4982385;28;20509;-69
2022/10/07 06:55:33;;;;;;;3.30;1.50;;;16.30;58.00;;;;;;4980267;28;20467;-67
2022/10/07 06:58:03;;;;;;;5.40;2.43;;;16.30;57.90;;;;;;4965711;28;20458;-69
2022/10/07 07:00:39;;;;;;;2.23;1.50;;;16.30;58.00;;;;;;4971893;28;20473;-67
2022/10/07 07:03:09;;;;;;;1.80;1.40;;;16.30;58.10;;;;;;4971949;28;20533;-68
2022/10/07 07:05:41;;;;;;;2.30;1.30;;;16.30;58.00;;;;;;4974327;28;20469;-68
2022/10/07 07:08:21;;;;;;;2.80;1.50;;;16.30;58.10;;;;;;4972239;28;20562;-68
2022/10/07 07:10:55;;;;;;;2.10;1.20;;;16.30;58.00;;;;;;4966420;28;20464;-68
2022/10/07 07:14:20;;;;;;;4.50;2.03;;;16.30;58.00;;;;;;4971195;28;20485;-68
2022/10/07 07:17:11;;;;;;;2.90;1.90;;;16.30;57.80;;;;;;4964551;28;20459;-68
2022/10/07 07:20:33;;;;;;;2.37;1.37;;;16.30;57.80;;;;;;4967834;28;20442;-68
2022/10/07 07:24:01;;;;;;;3.20;2.10;;;16.30;58.10;;;;;;4966170;28;20454;-68
2022/10/07 07:31:38;;;;;;;3.27;1.60;;;16.20;58.00;;;;;;4965482;28;20446;-68
2022/10/07 07:34:16;;;;;;;2.43;1.20;;;16.30;57.90;;;;;;4951621;28;20438;-68
2022/10/07 07:36:52;;;;;;;2.23;1.60;;;16.30;58.00;;;;;;4969171;28;20464;-68
2022/10/07 07:43:53;;;;;;;1.20;1.10;;;16.20;58.00;;;;;;5003644;23;20542;-74
2022/10/07 07:46:28;;;;;;;1.47;1.23;;;16.30;58.10;;;;;;5005234;28;20844;-72
2022/10/07 07:49:00;;;;;;;4.43;2.00;;;16.30;58.10;;;;;;5001349;28;20788;-74
2022/10/07 07:51:33;;;;;;;1.63;1.17;;;16.30;58.20;;;;;;4984289;28;20449;-73
2022/10/07 07:54:16;;;;;;;1.37;0.87;;;16.30;58.30;;;;;;4977606;28;20426;-72
2022/10/07 07:57:01;;;;;;;2.23;1.37;;;16.30;59.50;;;;;;4983449;28;20457;-74
2022/10/07 08:00:04;;;;;;;1.20;1.07;;;16.30;58.30;;;;;;5023394;28;20491;-72
2022/10/07 08:02:42;;;;;;;2.00;1.30;;;16.30;58.30;;;;;;5009482;28;20874;-73
2022/10/07 08:05:17;;;;;;;1.93;1.10;;;16.30;58.30;;;;;;4990140;28;20467;-73
2022/10/07 08:07:59;;;;;;;2.87;1.43;;;16.30;58.20;;;;;;4983926;28;20488;-73
2022/10/07 08:10:29;;;;;;;2.20;1.30;;;16.30;58.20;;;;;;5007490;28;20468;-72
2022/10/07 08:13:07;;;;;;;2.07;1.00;;;16.30;58.20;;;;;;4975421;28;20468;-74
2022/10/07 08:15:45;;;;;;;1.67;0.93;;;16.30;58.20;;;;;;4990964;28;20839;-73
2022/10/07 08:18:26;;;;;;;1.10;1.00;;;16.30;58.10;;;;;;4986122;28;20481;-72
2022/10/07 08:21:10;;;;;;;2.03;1.50;;;16.30;58.20;;;;;;4980425;28;21004;-72
2022/10/07 08:23:40;;;;;;;1.53;0.90;;;16.30;58.10;;;;;;4988159;28;20437;-74
2022/10/07 08:26:08;;;;;;;1.93;1.50;;;16.30;58.50;;;;;;4982687;28;20825;-72
2022/10/07 08:28:39;;;;;;;7.30;3.50;;;16.30;58.20;;;;;;4989138;28;20477;-74
2022/10/07 08:31:13;;;;;;;7.10;3.43;;;16.40;58.50;;;;;;4989281;28;20479;-74
2022/10/07 08:33:44;;;;;;;4.60;2.47;;;16.50;58.80;;;;;;5008044;28;20523;-73
2022/10/07 08:36:16;;;;;;;4.90;2.97;;;16.70;57.80;;;;;;5000678;28;20477;-73
2022/10/07 08:38:46;;;;;;;4.10;2.40;;;16.90;57.00;;;;;;4985936;28;20460;-73
2022/10/07 08:41:45;;;;;;;4.70;2.10;;;17.00;56.60;;;;;;4987645;28;20483;-74
2022/10/07 08:44:25;;;;;;;5.90;2.10;;;17.10;56.40;;;;;;4976706;28;20457;-73
2022/10/07 08:47:05;;;;;;;4.80;1.90;;;17.10;56.20;;;;;;4988122;28;20515;-73
2022/10/07 08:49:44;;;;;;;5.50;2.13;;;17.20;56.20;;;;;;5004005;28;20984;-73
2022/10/07 08:52:32;;;;;;;5.70;2.17;;;17.10;56.00;;;;;;5009946;28;20552;-74
2022/10/07 08:55:03;;;;;;;4.90;2.10;;;17.10;56.10;;;;;;5015461;28;20428;-72
2022/10/07 08:57:49;;;;;;;4.73;1.90;;;17.10;56.20;;;;;;4983036;28;20459;-73
2022/10/07 09:00:23;;;;;;;3.77;1.80;;;17.00;56.20;;;;;;5000781;28;20499;-73
2022/10/07 09:03:06;;;;;;;5.10;2.50;;;17.00;56.30;;;;;;4990424;28;20429;-73
2022/10/07 09:05:41;;;;;;;3.83;1.90;;;17.00;56.40;;;;;;4987820;28;20472;-74
2022/10/07 09:08:17;;;;;;;4.40;2.07;;;16.90;56.70;;;;;;5015868;28;20982;-73
2022/10/07 09:10:52;;;;;;;4.00;1.90;;;16.90;56.50;;;;;;4989044;28;20464;-72
2022/10/07 09:13:24;;;;;;;5.50;2.10;;;16.90;56.50;;;;;;4984377;28;20897;-74
2022/10/07 09:16:11;;;;;;;7.90;2.07;;;16.90;56.70;;;;;;4987070;28;20535;-73
2022/10/07 09:18:43;;;;;;;3.77;1.90;;;16.90;56.80;;;;;;4987431;28;20437;-73
2022/10/07 09:21:15;;;;;;;9.67;1.97;;;16.90;56.70;;;;;;5016013;28;20480;-73
2022/10/07 09:23:45;;;;;;;23.83;4.47;;;16.90;56.40;;;;;;4985009;28;20449;-72
2022/10/07 09:26:16;;;;;;;5.40;1.83;;;16.90;57.00;;;;;;4988190;28;21073;-74
2022/10/07 17:11:34;;;;;;;10.40;6.67;;;17.00;61.00;;;;;;5022477;28;20507;-47
2022/10/07 17:14:21;;;;;;;10.73;6.77;;;17.10;61.10;;;;;;5018886;28;20444;-47
2022/10/07 17:16:55;;;;;;;7.65;5.90;;;17.10;61.00;;;;;;5021184;28;20823;-47
2022/10/07 17:19:25;;;;;;;9.87;5.67;;;17.10;61.10;;;;;;5021921;28;20301;-49
2022/10/07 17:21:56;;;;;;;6.80;5.70;;;17.10;61.00;;;;;;5022728;28;21130;-47
2022/10/07 17:24:25;;;;;;;8.03;3.43;;;17.10;61.10;;;;;;5013149;28;20452;-47
2022/10/07 17:26:54;;;;;;;9.43;4.70;;;17.10;60.20;;;;;;5021394;28;20476;-48
2022/10/07 17:29:24;;;;;;;7.87;3.87;;;17.10;60.30;;;;;;5020169;28;20284;-47
2022/10/07 17:31:54;;;;;;;6.07;4.57;;;17.00;60.70;;;;;;5017404;28;20474;-50
2022/10/07 17:34:23;;;;;;;6.70;4.80;;;17.00;60.90;;;;;;5033341;28;20467;-49
2022/10/07 17:36:51;;;;;;;6.37;4.07;;;17.00;61.00;;;;;;5026022;28;20464;-49
2022/10/07 17:39:21;;;;;;;9.20;4.73;;;17.10;61.10;;;;;;5024592;28;20436;-48
2022/10/07 17:41:50;;;;;;;6.70;4.23;;;17.10;61.00;;;;;;5050229;28;20443;-49
2022/10/07 17:44:20;;;;;;;8.27;4.13;;;17.10;60.70;;;;;;5045589;28;20431;-48
2022/10/07 17:46:50;;;;;;;4.70;3.50;;;17.10;60.60;;;;;;5045271;28;20811;-48
2022/10/07 17:49:19;;;;;;;6.80;4.10;;;17.10;60.70;;;;;;5039777;28;20454;-48
2022/10/07 17:51:48;;;;;;;6.87;3.73;;;17.20;60.70;;;;;;5043958;28;20448;-49
2022/10/07 17:54:16;;;;;;;7.20;4.17;;;17.10;60.50;;;;;;5035492;28;20467;-49
2022/10/07 17:56:46;;;;;;;9.23;4.20;;;17.20;60.70;;;;;;5025218;28;20468;-49
2022/10/07 17:59:15;;;;;;;7.87;4.33;;;17.20;60.70;;;;;;5026585;28;20506;-49
2022/10/07 18:01:44;;;;;;;5.50;3.90;;;17.20;60.70;;;;;;5025544;28;20924;-49
2022/10/07 18:04:17;;;;;;;6.30;4.00;;;17.20;60.50;;;;;;5024984;28;20483;-49
2022/10/07 18:06:52;;;;;;;6.23;3.70;;;17.20;60.60;;;;;;5037222;28;20459;-50
2022/10/07 18:09:23;;;;;;;5.83;3.83;;;17.20;60.60;;;;;;5023082;28;20448;-48
2022/10/07 18:17:24;;;;;;;4.30;3.30;;;17.20;60.50;;;;;;5043601;28;20802;-49
2022/10/07 18:19:54;;;;;;;6.83;4.03;;;17.20;60.50;;;;;;5032702;28;20449;-49
2022/10/07 18:22:23;;;;;;;5.37;3.83;;;17.20;60.50;;;;;;5029763;28;20978;-49
2022/10/07 18:24:55;;;;;;;5.60;3.93;;;17.20;60.60;;;;;;5030205;28;20483;-49
2022/10/07 18:27:25;;;;;;;4.83;3.00;;;17.20;60.50;;;;;;5031380;28;21050;-48
2022/10/07 18:29:56;;;;;;;7.33;3.60;;;17.20;60.50;;;;;;5033240;28;20428;-48
2022/10/07 18:32:25;;;;;;;5.50;3.87;;;17.20;60.50;;;;;;5033239;28;20831;-48
2022/10/07 18:34:54;;;;;;;7.77;4.07;;;17.20;60.50;;;;;;5029394;28;20467;-49
2022/10/07 18:37:23;;;;;;;5.30;3.70;;;17.30;60.50;;;;;;5029392;28;20467;-48
2022/10/07 18:39:51;;;;;;;5.03;4.37;;;17.30;60.50;;;;;;5030733;28;20440;-48
2022/10/07 18:42:20;;;;;;;10.03;4.10;;;17.30;60.60;;;;;;5005849;28;20440;-48
2022/10/07 18:44:51;;;;;;;6.53;3.60;;;17.30;60.50;;;;;;5021915;28;20460;-49
2022/10/07 18:47:19;;;;;;;5.37;3.90;;;17.30;60.60;;;;;;5039160;28;20439;-48
2022/10/07 18:49:50;;;;;;;4.17;3.10;;;17.30;60.60;;;;;;5030321;28;20531;-48
2022/10/07 18:52:20;;;;;;;5.60;2.87;;;17.30;60.60;;;;;;5030780;28;20446;-49
2022/10/07 18:54:48;;;;;;;6.60;3.37;;;17.30;60.70;;;;;;5029305;28;20483;-48
2022/10/07 18:57:18;;;;;;;3.23;2.67;;;17.30;60.70;;;;;;5028038;28;20468;-48
2022/10/07 18:59:47;;;;;;;5.80;3.77;;;17.30;60.60;;;;;;5040455;28;20454;-47
2022/10/07 19:02:15;;;;;;;5.43;3.97;;;17.30;60.60;;;;;;5029992;28;20490;-50
2022/10/07 19:04:44;;;;;;;6.77;3.80;;;17.30;60.70;;;;;;5021143;28;20456;-50
2022/10/07 19:07:13;;;;;;;7.03;3.57;;;17.30;60.60;;;;;;5030124;28;20488;-48
2022/10/07 19:09:43;;;;;;;3.97;3.20;;;17.30;60.60;;;;;;5038440;28;20490;-48
2022/10/07 19:14:54;;;;;;;8.07;3.27;;;17.30;60.70;;;;;;5021503;28;20517;-48
2022/10/07 19:17:22;;;;;;;5.57;2.90;;;17.30;60.50;;;;;;5016546;28;20559;-49
2022/10/07 19:19:51;;;;;;;4.63;3.37;;;17.30;60.50;;;;;;5026560;28;20459;-48
2022/10/07 19:22:21;;;;;;;3.50;2.90;;;17.30;60.50;;;;;;5029449;28;20444;-50
2022/10/07 19:27:36;;;;;;;4.70;3.60;;;17.30;60.40;;;;;;5029963;28;20436;-50
2022/10/07 19:30:06;;;;;;;5.67;3.60;;;17.30;60.50;;;;;;5028738;28;20494;-49
2022/10/07 19:32:35;;;;;;;5.80;3.73;;;17.30;60.40;;;;;;5022033;28;20433;-48
2022/10/07 19:35:04;;;;;;;4.37;3.10;;;17.30;60.50;;;;;;5029741;28;20429;-48
2022/10/07 19:37:32;;;;;;;4.33;2.90;;;17.30;60.50;;;;;;5029668;28;20467;-48
2022/10/07 19:40:02;;;;;;;5.07;3.40;;;17.30;60.50;;;;;;5029089;28;20480;-48
2022/10/07 19:42:31;;;;;;;4.03;3.20;;;17.30;60.50;;;;;;5029502;28;20491;-49
2022/10/07 19:44:59;;;;;;;4.33;2.90;;;17.30;60.30;;;;;;5064602;22;20492;-75
2022/10/07 19:47:29;;;;;;;4.57;3.17;;;17.30;60.30;;;;;;5006377;28;21027;-74
2022/10/07 19:49:57;;;;;;;9.00;4.17;;;17.30;60.40;;;;;;5033063;28;20464;-74
2022/10/07 19:52:27;;;;;;;5.27;3.03;;;17.30;60.50;;;;;;4999707;28;20430;-74
2022/10/07 19:54:55;;;;;;;4.10;3.00;;;17.30;60.40;;;;;;4989794;28;20485;-73
2022/10/07 19:57:25;;;;;;;4.87;3.03;;;17.30;60.40;;;;;;5000196;28;21079;-74
2022/10/07 19:59:53;;;;;;;3.33;2.80;;;17.30;60.30;;;;;;5045401;28;20453;-74
2022/10/07 20:02:22;;;;;;;3.50;2.60;;;17.30;60.20;;;;;;5033107;28;20430;-74
2022/10/07 20:04:50;;;;;;;5.20;3.07;;;17.30;60.10;;;;;;4999557;28;20434;-74
2022/10/07 20:07:19;;;;;;;3.83;2.50;;;17.30;60.10;;;;;;5007149;28;20554;-73
2022/10/07 20:09:47;;;;;;;3.03;2.20;;;17.30;60.20;;;;;;5004315;28;20551;-73
2022/10/07 20:12:15;;;;;;;4.77;3.00;;;17.30;60.20;;;;;;5005774;28;20671;-74
2022/10/07 20:14:45;;;;;;;4.37;2.70;;;17.30;60.00;;;;;;5001863;28;20460;-72
2022/10/07 20:17:13;;;;;;;2.80;2.43;;;17.30;60.00;;;;;;5004766;28;20472;-73
2022/10/07 20:19:42;;;;;;;4.53;2.60;;;17.30;60.00;;;;;;5005321;28;20441;-75
2022/10/07 20:22:10;;;;;;;2.30;2.10;;;17.30;60.10;;;;;;5006420;28;20447;-75
2022/10/07 20:24:38;;;;;;;2.67;2.47;;;17.30;60.00;;;;;;5000846;28;20476;-73
2022/10/07 20:27:07;;;;;;;5.83;3.37;;;17.30;59.80;;;;;;4986385;28;20504;-74
2022/10/07 20:29:55;;;;;;;3.83;3.10;;;17.30;59.90;;;;;;5030616;28;20433;-73
2022/10/07 20:32:27;;;;;;;5.03;2.50;;;17.30;60.00;;;;;;5021757;28;20445;-74
2022/10/07 20:34:55;;;;;;;3.10;2.63;;;17.30;60.00;;;;;;5003761;28;20480;-74
2022/10/07 20:37:24;;;;;;;3.53;2.20;;;17.30;60.00;;;;;;4993124;28;20457;-74
2022/10/07 20:42:38;;;;;;;4.20;2.80;;;17.30;60.00;;;;;;5003875;28;20470;-73
2022/10/07 20:45:11;;;;;;;4.37;2.77;;;17.30;60.00;;;;;;5005120;28;20562;-74
2022/10/07 20:47:41;;;;;;;3.83;2.30;;;17.30;59.90;;;;;;5032465;28;20460;-73
2022/10/07 20:50:09;;;;;;;3.50;2.90;;;17.30;60.00;;;;;;5005955;28;20476;-73
2022/10/07 20:52:38;;;;;;;4.30;3.00;;;17.30;60.00;;;;;;4996913;28;20957;-73
2022/10/07 20:55:08;;;;;;;3.10;2.77;;;17.30;60.00;;;;;;5030644;28;20477;-75
2022/10/07 20:57:37;;;;;;;4.07;2.30;;;17.30;59.90;;;;;;4998325;28;20973;-74
2022/10/07 21:00:14;;;;;;;4.43;3.07;;;17.30;59.80;;;;;;5002149;28;20678;-74
2022/10/07 21:02:44;;;;;;;4.30;3.10;;;17.30;59.80;;;;;;4992568;28;20539;-73
2022/10/07 21:05:13;;;;;;;3.27;2.63;;;17.30;59.80;;;;;;5000392;28;21041;-75
2022/10/07 21:07:42;;;;;;;3.80;2.70;;;17.30;59.80;;;;;;5013089;28;20445;-75
2022/10/07 21:10:10;;;;;;;3.43;2.63;;;17.30;59.80;;;;;;5002211;28;20456;-74
2022/10/07 21:12:39;;;;;;;4.03;2.60;;;17.30;59.80;;;;;;4994550;28;20449;-75
2022/10/07 21:15:08;;;;;;;3.40;2.50;;;17.30;59.70;;;;;;5006531;28;20488;-73
2022/10/07 21:17:36;;;;;;;3.37;2.20;;;17.30;59.80;;;;;;5003509;28;20465;-75
2022/10/07 21:20:07;;;;;;;5.13;3.07;;;17.30;59.80;;;;;;4998291;28;20553;-74
2022/10/07 21:22:36;;;;;;;3.57;2.30;;;17.30;59.70;;;;;;4994407;28;20452;-76
2022/10/07 21:25:05;;;;;;;3.97;2.10;;;17.30;59.80;;;;;;5001954;28;20460;-75
2022/10/07 21:27:37;;;;;;;2.70;2.40;;;17.30;59.80;;;;;;4998453;28;21099;-73
2022/10/07 21:30:07;;;;;;;3.77;2.77;;;17.30;59.70;;;;;;5014587;28;20571;-73
2022/10/07 21:32:35;;;;;;;5.20;2.97;;;17.30;59.70;;;;;;5005780;28;20535;-73
2022/10/07 21:35:04;;;;;;;3.40;2.60;;;17.30;59.70;;;;;;4998458;28;21039;-73
2022/10/07 21:37:34;;;;;;;2.97;2.67;;;17.30;59.70;;;;;;4997817;28;20488;-74
2022/10/07 21:40:02;;;;;;;4.00;2.20;;;17.30;59.70;;;;;;5004594;28;20465;-74
2022/10/07 21:42:30;;;;;;;3.10;2.00;;;17.30;59.70;;;;;;5006111;28;20528;-73
2022/10/07 21:44:59;;;;;;;3.50;2.10;;;17.30;59.70;;;;;;5004171;28;20540;-75